Time;durP1;ratioP1;P1;durP2;ratioP2;P2;SDS_P1;SDS_P2;PMS_P1;PMS_P2;Temp;Humidity;BMP_temperature;BMP_pressure;BME280_temperature;BME280_humidity;BME280_pressure;Samples;Min_cycle;Max_cycle;Signal;HPM_P1;HPM_P2
2022/11/29 00:00:41;;;;;;;6.45;4.40;;;8.20;63.90;;;;;;5049662;28;20034;-80
2022/11/29 00:03:06;;;;;;;8.02;4.95;;;8.20;63.80;;;;;;5028397;28;20035;-81
2022/11/29 00:05:35;;;;;;;5.47;4.45;;;8.10;63.70;;;;;;4996836;28;20037;-82
2022/11/29 00:08:01;;;;;;;7.30;4.25;;;8.10;63.60;;;;;;5033096;28;20036;-82
2022/11/29 00:10:27;;;;;;;6.82;4.80;;;8.10;63.50;;;;;;5017856;28;20033;-80
2022/11/29 00:12:53;;;;;;;7.78;4.70;;;8.10;63.50;;;;;;5052101;28;20033;-80
2022/11/29 00:15:19;;;;;;;6.20;4.65;;;8.10;63.50;;;;;;5027998;28;20030;-80
2022/11/29 00:17:45;;;;;;;5.35;4.47;;;8.10;63.70;;;;;;5028620;28;20500;-80
2022/11/29 00:20:11;;;;;;;6.97;4.93;;;8.10;63.80;;;;;;5000838;28;20090;-81
2022/11/29 00:22:38;;;;;;;7.53;4.05;;;8.10;63.70;;;;;;5036249;28;20033;-80
2022/11/29 00:25:05;;;;;;;6.25;4.28;;;8.10;63.70;;;;;;5035640;28;20040;-80
2022/11/29 00:27:31;;;;;;;6.70;4.47;;;8.10;63.60;;;;;;5035097;28;20095;-81
2022/11/29 00:29:57;;;;;;;8.25;4.47;;;8.10;63.70;;;;;;5020992;28;20453;-78
2022/11/29 00:32:23;;;;;;;6.55;4.60;;;8.10;63.70;;;;;;4986803;28;20121;-79
2022/11/29 00:34:49;;;;;;;5.45;4.40;;;8.10;63.60;;;;;;5033977;28;20037;-79
2022/11/29 00:37:15;;;;;;;6.10;4.32;;;8.10;63.80;;;;;;5055087;28;20054;-79
2022/11/29 00:39:41;;;;;;;6.43;4.45;;;8.10;63.80;;;;;;5037855;28;20034;-79
2022/11/29 00:42:06;;;;;;;4.85;3.83;;;8.00;63.70;;;;;;5035414;28;20571;-79
2022/11/29 00:44:32;;;;;;;6.43;4.72;;;8.10;63.80;;;;;;5018137;28;20388;-78
2022/11/29 00:46:58;;;;;;;6.80;4.30;;;8.00;63.80;;;;;;5001645;28;20048;-79
2022/11/29 00:49:24;;;;;;;6.50;4.80;;;8.00;63.90;;;;;;5035116;28;20056;-79
2022/11/29 00:51:50;;;;;;;6.15;4.15;;;8.00;63.80;;;;;;5017291;28;20073;-79
2022/11/29 00:54:16;;;;;;;6.05;4.75;;;8.00;63.80;;;;;;5025219;28;20041;-79
2022/11/29 00:56:42;;;;;;;6.00;3.88;;;8.00;63.70;;;;;;5025539;28;20103;-79
2022/11/29 00:59:08;;;;;;;6.80;4.00;;;8.00;63.70;;;;;;5021907;28;20048;-78
2022/11/29 01:01:34;;;;;;;5.95;4.20;;;8.00;63.60;;;;;;5018000;28;20041;-78
2022/11/29 01:04:01;;;;;;;5.72;3.78;;;8.00;63.70;;;;;;5019845;28;20033;-79
2022/11/29 01:06:27;;;;;;;8.13;4.47;;;8.00;63.70;;;;;;5020699;28;20123;-79
2022/11/29 01:08:53;;;;;;;6.60;4.50;;;8.00;63.70;;;;;;5037143;28;20044;-79
2022/11/29 01:11:21;;;;;;;5.07;4.07;;;8.00;63.60;;;;;;5003856;28;20048;-79
2022/11/29 01:13:49;;;;;;;6.28;4.10;;;8.00;63.50;;;;;;5020312;28;20095;-78
2022/11/29 01:16:16;;;;;;;6.80;4.30;;;8.00;63.40;;;;;;5038668;28;20051;-79
2022/11/29 01:18:43;;;;;;;5.07;3.97;;;8.00;63.30;;;;;;5019275;28;20041;-78
2022/11/29 01:21:14;;;;;;;5.82;4.47;;;8.00;63.30;;;;;;5037695;28;20045;-78
2022/11/29 01:23:41;;;;;;;5.30;4.10;;;7.90;63.20;;;;;;5017156;28;20040;-78
2022/11/29 01:26:11;;;;;;;6.82;4.57;;;7.90;63.20;;;;;;5015053;28;20927;-78
2022/11/29 01:28:38;;;;;;;6.03;4.53;;;7.90;63.00;;;;;;5038888;28;20025;-78
2022/11/29 01:31:06;;;;;;;6.35;4.60;;;7.90;62.90;;;;;;5022418;28;20036;-78
2022/11/29 01:33:33;;;;;;;6.28;4.13;;;7.90;62.90;;;;;;5055207;28;20067;-79
2022/11/29 01:35:59;;;;;;;6.93;4.57;;;7.90;63.00;;;;;;5014887;28;20053;-77
2022/11/29 01:38:24;;;;;;;10.18;4.63;;;7.90;63.10;;;;;;4998049;28;20038;-77
2022/11/29 01:41:11;;;;;;;7.18;4.93;;;7.90;63.20;;;;;;4997445;28;20084;-78
2022/11/29 01:44:10;;;;;;;9.75;5.25;;;7.90;63.20;;;;;;5018040;28;20037;-77
2022/11/29 01:46:39;;;;;;;8.50;5.20;;;7.90;63.20;;;;;;5019031;28;20033;-79
2022/11/29 01:49:13;;;;;;;7.32;5.25;;;7.90;63.20;;;;;;4996617;28;20041;-77
2022/11/29 01:51:43;;;;;;;7.00;4.82;;;7.90;63.30;;;;;;4998253;28;20034;-77
2022/11/29 01:54:10;;;;;;;6.80;5.15;;;7.90;63.30;;;;;;5008023;28;20119;-77
2022/11/29 01:56:37;;;;;;;7.13;5.05;;;7.90;63.40;;;;;;5009681;28;20412;-78
2022/11/29 01:59:10;;;;;;;7.78;5.00;;;7.90;63.40;;;;;;5004620;28;20034;-78
2022/11/29 02:01:37;;;;;;;8.25;5.35;;;7.80;63.40;;;;;;5013258;28;20030;-78
2022/11/29 02:04:05;;;;;;;7.97;5.53;;;7.80;63.40;;;;;;5015937;28;20041;-78
2022/11/29 02:06:32;;;;;;;8.90;5.63;;;7.80;63.40;;;;;;5016091;28;20037;-80
2022/11/29 02:08:58;;;;;;;8.13;5.53;;;7.80;63.30;;;;;;5021724;28;20395;-79
2022/11/29 02:11:46;;;;;;;6.65;4.88;;;7.80;63.20;;;;;;4996317;28;20039;-79
2022/11/29 02:14:31;;;;;;;7.60;5.47;;;7.80;63.20;;;;;;4984544;28;20095;-77
2022/11/29 02:17:19;;;;;;;9.15;5.45;;;7.80;63.20;;;;;;5018415;28;20204;-78
2022/11/29 02:20:10;;;;;;;8.45;4.95;;;7.80;63.20;;;;;;5016166;28;20045;-78
2022/11/29 02:23:06;;;;;;;6.47;4.47;;;7.80;63.20;;;;;;5017658;28;20625;-78
2022/11/29 02:25:41;;;;;;;7.70;4.90;;;7.80;63.20;;;;;;5016703;28;20125;-79
2022/11/29 02:28:19;;;;;;;6.60;5.00;;;7.80;63.60;;;;;;5017900;28;20037;-79
2022/11/29 02:31:19;;;;;;;6.30;4.85;;;7.80;62.80;;;;;;5033083;28;20408;-78
2022/11/29 02:34:03;;;;;;;5.75;4.35;;;7.70;62.90;;;;;;5031198;28;20120;-79
2022/11/29 02:36:41;;;;;;;7.60;5.38;;;7.70;62.90;;;;;;4988074;28;21294;-79
2022/11/29 02:39:12;;;;;;;8.27;4.72;;;7.70;62.90;;;;;;4984472;28;20069;-79
2022/11/29 02:41:45;;;;;;;7.03;4.85;;;7.70;62.90;;;;;;4989670;28;20034;-78
2022/11/29 02:44:17;;;;;;;7.75;4.63;;;7.70;62.90;;;;;;4980407;28;20498;-78
2022/11/29 02:46:53;;;;;;;6.63;5.20;;;7.70;62.80;;;;;;4982117;28;20119;-78
2022/11/29 02:49:35;;;;;;;6.55;4.75;;;7.70;62.80;;;;;;4983016;28;20129;-78
2022/11/29 02:52:07;;;;;;;6.45;4.80;;;7.70;62.70;;;;;;4981431;28;20482;-81
2022/11/29 02:54:49;;;;;;;6.93;4.82;;;7.70;62.70;;;;;;4995350;28;20038;-80
2022/11/29 02:57:56;;;;;;;8.50;4.97;;;7.70;62.70;;;;;;4996589;28;20058;-81
2022/11/29 03:00:22;;;;;;;6.25;4.22;;;7.70;62.70;;;;;;4960322;28;20035;-79
2022/11/29 03:02:55;;;;;;;6.03;4.50;;;7.70;62.70;;;;;;4944789;28;20218;-79
2022/11/29 03:05:46;;;;;;;6.18;4.55;;;7.60;62.70;;;;;;4948380;28;20495;-80
2022/11/29 03:08:31;;;;;;;5.88;4.25;;;7.70;62.90;;;;;;4948301;28;20410;-80
2022/11/29 03:11:32;;;;;;;7.85;4.28;;;7.60;62.90;;;;;;4959392;28;20110;-82
2022/11/29 03:14:18;;;;;;;5.35;4.40;;;7.60;62.90;;;;;;4932685;28;20532;-80
2022/11/29 03:16:53;;;;;;;6.72;4.30;;;7.60;62.80;;;;;;4960817;28;20039;-79
2022/11/29 03:19:52;;;;;;;5.80;4.40;;;7.60;62.50;;;;;;4959640;28;20491;-80
2022/11/29 03:22:29;;;;;;;8.48;5.00;;;7.60;62.30;;;;;;4943950;29;20116;-79
2022/11/29 03:25:10;;;;;;;10.77;5.43;;;7.60;62.30;;;;;;4940591;28;20076;-80
2022/11/29 03:28:00;;;;;;;8.57;5.28;;;7.60;62.30;;;;;;4911929;29;20713;-78
2022/11/29 03:30:28;;;;;;;6.80;4.55;;;7.60;62.30;;;;;;4921626;29;20535;-79
2022/11/29 03:33:18;;;;;;;7.38;4.57;;;7.60;62.20;;;;;;4890215;29;20135;-79
2022/11/29 03:36:09;;;;;;;7.05;5.00;;;7.50;62.10;;;;;;4945035;28;20041;-80
2022/11/29 03:38:40;;;;;;;7.82;5.00;;;7.50;62.00;;;;;;5012726;28;20038;-80
2022/11/29 03:41:24;;;;;;;5.45;4.50;;;7.50;61.90;;;;;;4998606;28;20037;-80
2022/11/29 03:44:05;;;;;;;7.65;5.40;;;7.50;62.00;;;;;;4975093;28;20150;-80
2022/11/29 03:46:40;;;;;;;7.97;4.97;;;7.50;62.00;;;;;;4976914;28;20149;-80
2022/11/29 03:49:24;;;;;;;6.68;5.38;;;7.50;62.00;;;;;;4960986;28;20068;-79
2022/11/29 03:52:06;;;;;;;9.63;5.65;;;7.50;62.10;;;;;;4992055;28;20038;-77
2022/11/29 03:54:45;;;;;;;8.60;5.50;;;7.50;62.10;;;;;;4991731;28;20034;-78
2022/11/29 03:57:16;;;;;;;7.03;4.63;;;7.50;62.10;;;;;;4992234;28;20100;-79
2022/11/29 03:59:58;;;;;;;6.68;4.93;;;7.50;62.30;;;;;;5026026;28;20037;-76
2022/11/29 04:02:33;;;;;;;8.27;4.75;;;7.50;62.50;;;;;;5039339;28;20037;-77
2022/11/29 04:05:11;;;;;;;7.85;5.43;;;7.50;62.30;;;;;;5054426;28;20039;-76
2022/11/29 04:07:47;;;;;;;9.23;5.20;;;7.50;62.90;;;;;;5055362;28;20037;-77
2022/11/29 04:10:28;;;;;;;6.75;5.18;;;7.50;62.30;;;;;;5054586;28;20052;-78
2022/11/29 04:13:09;;;;;;;8.77;5.57;;;7.50;62.30;;;;;;5035399;28;20144;-77
2022/11/29 04:15:53;;;;;;;7.53;5.30;;;7.50;62.40;;;;;;5036438;28;20033;-79
2022/11/29 04:18:41;;;;;;;7.65;5.30;;;7.50;62.30;;;;;;5047877;28;20057;-80
2022/11/29 04:21:37;;;;;;;7.25;4.97;;;7.50;62.30;;;;;;5009940;28;20083;-79
2022/11/29 04:24:33;;;;;;;7.10;5.05;;;7.50;62.50;;;;;;5023332;28;20416;-79
2022/11/29 04:27:14;;;;;;;8.20;4.78;;;7.50;62.50;;;;;;5055312;28;20037;-78
2022/11/29 04:29:49;;;;;;;9.10;4.93;;;7.40;62.30;;;;;;5059114;28;20036;-79
2022/11/29 04:32:45;;;;;;;7.80;5.18;;;7.40;62.10;;;;;;5061170;28;20040;-79
2022/11/29 04:35:35;;;;;;;8.05;5.20;;;7.50;62.00;;;;;;5056639;28;20123;-79
2022/11/29 04:38:21;;;;;;;7.05;5.05;;;7.40;61.90;;;;;;5058864;28;20546;-80
2022/11/29 04:40:50;;;;;;;;;;;7.40;61.80;;;;;;5040778;28;20054;-80
2022/11/29 04:43:46;;;;;;;5.88;4.50;;;7.40;61.80;;;;;;5058694;28;20314;-80
2022/11/29 04:46:25;;;;;;;7.53;5.45;;;7.40;61.80;;;;;;5020961;28;20092;-80
2022/11/29 04:49:22;;;;;;;8.23;5.40;;;7.40;61.90;;;;;;5020138;28;20548;-79
2022/11/29 04:52:04;;;;;;;6.82;5.00;;;7.40;62.00;;;;;;5056044;28;20037;-79
2022/11/29 04:54:53;;;;;;;7.53;4.63;;;7.40;61.90;;;;;;5056760;28;20043;-78
2022/11/29 04:57:42;;;;;;;6.50;4.57;;;7.40;61.70;;;;;;5015348;28;20497;-81
2022/11/29 05:00:17;;;;;;;8.07;4.80;;;7.40;61.60;;;;;;5030701;28;20036;-81
2022/11/29 05:03:00;;;;;;;7.28;5.25;;;7.40;61.60;;;;;;5045495;28;20045;-80
2022/11/29 05:05:45;;;;;;;7.88;4.70;;;7.40;61.80;;;;;;5039485;28;20036;-80
2022/11/29 05:08:32;;;;;;;7.32;4.63;;;7.40;62.10;;;;;;5035767;28;20099;-80
2022/11/29 05:11:15;;;;;;;7.53;5.63;;;7.40;62.00;;;;;;5038514;28;20510;-78
2022/11/29 05:14:34;;;;;;;6.25;4.72;;;7.40;61.90;;;;;;5020833;28;20041;-77
2022/11/29 05:17:18;;;;;;;6.93;5.10;;;7.40;62.10;;;;;;4996326;28;20038;-79
2022/11/29 05:20:14;;;;;;;9.07;5.65;;;7.40;61.80;;;;;;4995858;28;20038;-79
2022/11/29 05:23:08;;;;;;;8.07;5.43;;;7.30;61.70;;;;;;4979236;28;20441;-78
2022/11/29 05:25:58;;;;;;;8.35;5.45;;;7.40;61.70;;;;;;4974738;28;20073;-82
2022/11/29 05:28:28;;;;;;;7.60;5.88;;;7.30;61.60;;;;;;4995636;28;20054;-80
2022/11/29 05:31:34;;;;;;;8.35;6.07;;;7.40;61.50;;;;;;4962826;28;20088;-80
2022/11/29 05:34:31;;;;;;;11.27;6.07;;;7.30;61.40;;;;;;4994717;28;20027;-83
2022/11/29 05:36:59;;;;;;;;;;;7.30;61.30;;;;;;4988536;28;20921;-81
2022/11/29 05:39:36;;;;;;;6.40;5.22;;;7.30;61.10;;;;;;4995128;28;20036;-82
2022/11/29 05:42:45;;;;;;;8.02;5.50;;;7.30;61.00;;;;;;4996242;28;20042;-82
2022/11/29 05:45:35;;;;;;;8.85;5.78;;;7.30;60.90;;;;;;4979798;28;20038;-82
2022/11/29 05:48:13;;;;;;;8.57;6.13;;;7.30;60.90;;;;;;4992145;28;20034;-82
2022/11/29 05:50:46;;;;;;;7.95;5.43;;;7.30;60.90;;;;;;5024849;28;20075;-80
2022/11/29 05:53:15;;;;;;;8.38;5.05;;;7.30;61.00;;;;;;5056932;28;20128;-79
2022/11/29 05:55:47;;;;;;;7.95;5.32;;;7.20;60.90;;;;;;5038501;28;20025;-79
2022/11/29 05:58:30;;;;;;;7.47;5.53;;;7.30;60.90;;;;;;5019564;28;20042;-80
2022/11/29 06:01:12;;;;;;;7.20;4.90;;;7.20;60.80;;;;;;5036903;28;20053;-80
2022/11/29 06:03:43;;;;;;;8.05;5.32;;;7.20;61.00;;;;;;5053837;28;20041;-80
2022/11/29 06:06:43;;;;;;;8.88;5.50;;;7.30;60.90;;;;;;5044761;28;20046;-82
2022/11/29 06:09:32;;;;;;;7.38;5.60;;;7.20;60.80;;;;;;5022293;28;20057;-80
2022/11/29 06:12:05;;;;;;;7.93;5.95;;;7.20;60.80;;;;;;5041122;28;20049;-81
2022/11/29 06:14:34;;;;;;;8.38;5.47;;;7.20;60.70;;;;;;5057542;28;20044;-81
2022/11/29 06:17:09;;;;;;;8.13;5.78;;;7.20;60.60;;;;;;5056380;28;20420;-80
2022/11/29 06:19:51;;;;;;;7.50;5.60;;;7.20;60.70;;;;;;5038315;28;20573;-79
2022/11/29 06:22:23;;;;;;;7.63;5.40;;;7.20;60.60;;;;;;5038951;28;20435;-80
2022/11/29 06:25:15;;;;;;;8.45;5.45;;;7.20;60.40;;;;;;5056500;28;20048;-81
2022/11/29 06:28:10;;;;;;;6.90;5.10;;;7.20;60.30;;;;;;4995457;28;20049;-83
2022/11/29 06:30:55;;;;;;;8.43;6.45;;;7.20;60.30;;;;;;5055288;28;20052;-81
2022/11/29 06:33:21;;;;;;;7.97;5.80;;;7.20;60.20;;;;;;5020571;28;20438;-81
2022/11/29 06:36:08;;;;;;;9.32;6.10;;;7.20;60.80;;;;;;5028163;28;20098;-81
2022/11/29 06:38:34;;;;;;;7.82;5.53;;;7.20;60.20;;;;;;5043286;28;20078;-83
2022/11/29 06:41:01;;;;;;;9.48;5.70;;;7.20;60.20;;;;;;5037944;28;20021;-77
2022/11/29 06:43:27;;;;;;;8.77;5.90;;;7.20;60.20;;;;;;5057062;28;20024;-77
2022/11/29 06:46:08;;;;;;;9.43;5.90;;;7.10;61.00;;;;;;5054594;28;20036;-77
2022/11/29 06:48:43;;;;;;;8.93;5.82;;;7.20;60.60;;;;;;5025106;28;20056;-77
2022/11/29 06:51:30;;;;;;;14.30;6.65;;;7.10;60.40;;;;;;5056028;28;20120;-78
2022/11/29 06:54:04;;;;;;;8.63;5.97;;;7.20;60.40;;;;;;5056763;28;20033;-77
2022/11/29 06:56:45;;;;;;;8.20;6.20;;;7.10;60.60;;;;;;5056664;28;20047;-78
2022/11/29 06:59:41;;;;;;;10.40;7.05;;;7.20;60.50;;;;;;5034254;28;20040;-78
2022/11/29 07:02:43;;;;;;;10.85;6.53;;;7.10;60.50;;;;;;5017796;28;20041;-79
2022/11/29 07:05:25;;;;;;;8.38;6.57;;;7.10;60.80;;;;;;5018267;28;20083;-77
2022/11/29 07:07:59;;;;;;;10.57;6.60;;;7.20;60.60;;;;;;5015164;28;20144;-79
2022/11/29 07:10:26;;;;;;;7.93;6.55;;;7.10;60.50;;;;;;5018583;28;20044;-80
2022/11/29 07:12:52;;;;;;;8.23;6.05;;;7.10;60.40;;;;;;5052938;28;20048;-78
2022/11/29 07:15:21;;;;;;;11.40;7.18;;;7.10;60.40;;;;;;5055377;28;20579;-78
2022/11/29 07:17:56;;;;;;;12.15;6.78;;;7.10;60.10;;;;;;5054781;28;20047;-78
2022/11/29 07:20:22;;;;;;;9.27;6.32;;;7.10;59.90;;;;;;5056398;28;20040;-78
2022/11/29 07:23:08;;;;;;;10.15;6.75;;;7.10;59.60;;;;;;5054755;28;20462;-78
2022/11/29 07:25:48;;;;;;;9.18;6.75;;;7.10;59.50;;;;;;5023149;28;20070;-76
2022/11/29 07:28:52;;;;;;;9.50;6.53;;;7.10;59.30;;;;;;5038071;28;20083;-78
2022/11/29 07:31:18;;;;;;;8.30;6.30;;;7.10;59.20;;;;;;4967384;28;20043;-77
2022/11/29 07:34:08;;;;;;;10.30;7.03;;;7.10;59.00;;;;;;4955424;28;20042;-77
2022/11/29 07:36:53;;;;;;;9.50;6.68;;;7.10;59.10;;;;;;4964662;28;20050;-77
2022/11/29 07:39:23;;;;;;;11.65;6.22;;;7.10;59.10;;;;;;4966144;28;20050;-79
2022/11/29 07:41:59;;;;;;;11.18;7.00;;;7.10;59.30;;;;;;4982312;28;20057;-78
2022/11/29 07:44:33;;;;;;;8.73;6.38;;;7.10;59.30;;;;;;4965653;28;20039;-84
2022/11/29 07:46:59;;;;;;;9.13;6.35;;;7.10;59.20;;;;;;4967745;28;20198;-81
2022/11/29 07:49:25;;;;;;;9.15;7.13;;;7.10;59.10;;;;;;4948601;29;20566;-83
2022/11/29 07:51:53;;;;;;;10.90;7.07;;;7.00;59.10;;;;;;4940001;28;20411;-82
2022/11/29 07:54:19;;;;;;;10.77;6.93;;;7.10;59.20;;;;;;4965906;28;20083;-83
2022/11/29 07:56:45;;;;;;;10.27;7.07;;;7.10;59.10;;;;;;4966652;28;20039;-83
2022/11/29 07:59:11;;;;;;;13.07;7.28;;;7.10;59.00;;;;;;4967291;28;20190;-82
2022/11/29 08:01:39;;;;;;;8.98;6.88;;;7.10;59.20;;;;;;4965913;28;20094;-83
2022/11/29 08:04:06;;;;;;;11.95;7.95;;;7.10;59.00;;;;;;4968503;28;20059;-79
2022/11/29 08:06:32;;;;;;;8.63;6.95;;;7.10;58.90;;;;;;5023757;28;20090;-78
2022/11/29 08:08:58;;;;;;;11.32;7.75;;;7.10;59.00;;;;;;5047214;28;20498;-79
2022/11/29 08:11:24;;;;;;;11.63;7.57;;;7.10;59.20;;;;;;5046449;28;20041;-79
2022/11/29 08:13:59;;;;;;;12.18;8.50;;;7.10;59.20;;;;;;5024634;28;20040;-78
2022/11/29 08:16:25;;;;;;;10.93;8.10;;;7.10;59.30;;;;;;5011535;28;20029;-79
2022/11/29 08:18:51;;;;;;;12.68;7.95;;;7.10;59.20;;;;;;5041647;28;20708;-79
2022/11/29 08:21:17;;;;;;;11.88;7.70;;;7.10;59.30;;;;;;5050737;28;20087;-80
2022/11/29 08:23:49;;;;;;;12.07;8.10;;;7.10;59.30;;;;;;5021093;28;20037;-83
2022/11/29 08:26:17;;;;;;;12.32;7.40;;;7.10;59.20;;;;;;5035012;28;20161;-81
2022/11/29 08:28:43;;;;;;;11.98;8.15;;;7.10;59.30;;;;;;5016176;28;20531;-80
2022/11/29 08:31:11;;;;;;;12.13;8.35;;;7.20;59.40;;;;;;4999943;28;20040;-82
2022/11/29 08:33:39;;;;;;;13.77;8.70;;;7.10;59.30;;;;;;5015663;28;20056;-83
2022/11/29 08:36:07;;;;;;;12.18;8.55;;;7.10;59.30;;;;;;5034736;28;20455;-80
2022/11/29 08:38:33;;;;;;;11.27;8.10;;;7.10;59.30;;;;;;5033651;28;20037;-82
2022/11/29 08:41:01;;;;;;;11.98;8.52;;;7.10;59.30;;;;;;5016234;28;20518;-80
2022/11/29 08:43:28;;;;;;;12.27;8.77;;;7.10;59.30;;;;;;5016329;28;20151;-83
2022/11/29 08:45:54;;;;;;;12.68;8.52;;;7.20;59.30;;;;;;5016095;28;20034;-82
2022/11/29 08:48:20;;;;;;;12.52;8.30;;;7.10;59.20;;;;;;5041573;28;20540;-81
2022/11/29 08:50:48;;;;;;;11.70;8.85;;;7.20;59.30;;;;;;5027639;28;20897;-81
2022/11/29 08:56:00;;;;;;;12.18;7.82;;;7.20;68.20;;;;;;5017959;28;20039;-80
2022/11/29 08:58:26;;;;;;;14.45;8.75;;;7.30;66.30;;;;;;5001070;28;20033;-80
2022/11/29 09:00:52;;;;;;;14.57;10.13;;;7.30;65.10;;;;;;4999728;28;20037;-79
2022/11/29 09:06:07;;;;;;;19.63;10.55;;;7.30;59.90;;;;;;5016680;28;20033;-83
2022/11/29 09:08:33;;;;;;;14.73;9.80;;;7.20;57.90;;;;;;4992691;28;20041;-81
2022/11/29 09:10:59;;;;;;;16.02;11.02;;;7.20;55.10;;;;;;4976110;28;20034;-82
2022/11/29 09:13:25;;;;;;;16.35;10.55;;;7.00;53.40;;;;;;5018007;28;20152;-82
2022/11/29 09:15:51;;;;;;;18.63;11.05;;;6.70;52.30;;;;;;5006747;28;20116;-79
2022/11/29 09:18:17;;;;;;;20.65;12.32;;;6.50;52.00;;;;;;5020057;28;20033;-80
2022/11/29 09:20:43;;;;;;;18.48;12.27;;;6.30;51.60;;;;;;5024677;28;20037;-80
2022/11/29 09:23:11;;;;;;;19.65;12.75;;;6.10;51.00;;;;;;5036599;28;20033;-80
2022/11/29 09:25:37;;;;;;;19.90;13.20;;;6.00;51.20;;;;;;5038091;28;20124;-80
2022/11/29 09:28:03;;;;;;;23.17;13.60;;;5.80;51.20;;;;;;5002820;28;20045;-79
2022/11/29 09:30:30;;;;;;;20.88;13.27;;;5.70;51.30;;;;;;5019401;28;20028;-79
2022/11/29 09:33:01;;;;;;;19.38;12.88;;;5.50;51.40;;;;;;5003830;28;20060;-78
2022/11/29 09:35:28;;;;;;;20.92;12.63;;;5.40;51.40;;;;;;5033839;28;20045;-81
2022/11/29 09:37:54;;;;;;;22.48;13.68;;;5.20;51.50;;;;;;5019786;28;20103;-81
2022/11/29 09:40:25;;;;;;;19.92;13.23;;;5.10;52.00;;;;;;5008242;28;20033;-80
2022/11/29 09:43:11;;;;;;;22.90;13.35;;;5.00;52.30;;;;;;5038352;28;20037;-81
2022/11/29 09:45:41;;;;;;;22.33;13.63;;;4.90;52.40;;;;;;5018745;28;20037;-79
2022/11/29 09:48:26;;;;;;;21.13;13.35;;;4.80;52.70;;;;;;5034361;28;20617;-80
2022/11/29 09:51:41;;;;;;;21.92;13.73;;;4.70;52.60;;;;;;5036796;28;20496;-80
2022/11/29 09:54:34;;;;;;;21.67;13.27;;;4.60;52.50;;;;;;5001113;28;20728;-79
2022/11/29 09:57:04;;;;;;;22.17;14.50;;;4.50;52.40;;;;;;5037404;28;20128;-79
2022/11/29 09:59:42;;;;;;;21.88;13.98;;;4.40;52.40;;;;;;5017852;28;20116;-78
2022/11/29 10:02:15;;;;;;;21.27;13.48;;;4.30;52.50;;;;;;4994480;28;20041;-80
2022/11/29 10:04:46;;;;;;;24.70;14.75;;;4.20;52.50;;;;;;5035951;28;20412;-83
2022/11/29 10:07:32;;;;;;;24.10;14.75;;;4.20;52.60;;;;;;5007179;28;20198;-80
2022/11/29 10:10:17;;;;;;;26.52;15.88;;;4.10;52.80;;;;;;5021410;28;20038;-82
2022/11/29 10:12:59;;;;;;;22.73;14.30;;;4.10;53.00;;;;;;5027112;28;20049;-82
2022/11/29 10:15:28;;;;;;;22.20;13.88;;;4.00;53.00;;;;;;5007280;28;20611;-81
2022/11/29 10:17:53;;;;;;;22.77;14.57;;;4.00;53.10;;;;;;5037518;28;20072;-80
2022/11/29 10:20:23;;;;;;;25.95;15.25;;;3.90;52.30;;;;;;5001018;28;20037;-82
2022/11/29 10:22:59;;;;;;;25.35;14.88;;;3.90;53.00;;;;;;5007682;28;20029;-80
2022/11/29 10:25:28;;;;;;;;;;;3.90;53.10;;;;;;5036658;28;20169;-82
2022/11/29 10:27:54;;;;;;;23.50;13.23;;;3.80;53.00;;;;;;5002792;28;19928;-81
2022/11/29 10:30:20;;;;;;;21.48;13.55;;;3.80;53.10;;;;;;5042527;28;20080;-78
2022/11/29 10:32:55;;;;;;;22.77;14.35;;;3.70;53.00;;;;;;5029502;28;21463;-80
2022/11/29 10:35:22;;;;;;;21.13;12.77;;;3.70;53.30;;;;;;5039391;28;20033;-82
2022/11/29 10:37:51;;;;;;;22.00;12.98;;;3.60;53.40;;;;;;5054353;28;20306;-79
2022/11/29 10:40:23;;;;;;;20.25;13.18;;;3.60;53.40;;;;;;5019596;28;20079;-81
2022/11/29 10:42:51;;;;;;;23.33;12.70;;;3.60;53.40;;;;;;5019111;28;20454;-79
2022/11/29 10:45:23;;;;;;;23.90;13.98;;;3.60;53.30;;;;;;5018110;28;20079;-82
2022/11/29 10:47:51;;;;;;;22.92;13.10;;;3.50;53.50;;;;;;5034409;28;20413;-81
2022/11/29 10:50:26;;;;;;;23.55;13.70;;;3.50;53.40;;;;;;5019728;28;20459;-84
2022/11/29 10:52:58;;;;;;;28.27;14.40;;;3.40;53.30;;;;;;5019821;28;20095;-83
2022/11/29 10:55:26;;;;;;;20.90;13.00;;;3.30;53.40;;;;;;5011908;28;20094;-82
2022/11/29 10:58:11;;;;;;;22.15;13.85;;;3.30;53.70;;;;;;5020067;28;20038;-83
2022/11/29 11:00:52;;;;;;;23.85;14.90;;;3.30;53.90;;;;;;5047652;28;20530;-82
2022/11/29 11:03:33;;;;;;;22.70;14.50;;;3.30;53.60;;;;;;4985378;28;20069;-83
2022/11/29 11:06:05;;;;;;;23.50;14.20;;;3.30;53.80;;;;;;4990331;28;20041;-81
2022/11/29 11:08:32;;;;;;;25.67;14.07;;;3.20;53.90;;;;;;5034886;28;20052;-81
2022/11/29 11:10:59;;;;;;;24.65;13.77;;;3.30;54.00;;;;;;5036689;28;20175;-79
2022/11/29 11:13:28;;;;;;;22.52;13.57;;;3.20;53.90;;;;;;5037871;28;20056;-79
2022/11/29 11:16:18;;;;;;;26.25;14.43;;;3.10;53.90;;;;;;5010684;28;20445;-79
2022/11/29 11:18:46;;;;;;;23.77;14.48;;;3.20;53.90;;;;;;5035194;28;20041;-79
2022/11/29 11:21:15;;;;;;;23.02;13.65;;;3.20;53.80;;;;;;5017159;28;20120;-79
2022/11/29 11:23:47;;;;;;;23.40;14.50;;;3.20;53.70;;;;;;5036759;28;20115;-79
2022/11/29 11:26:14;;;;;;;25.48;14.40;;;3.20;53.90;;;;;;5000426;28;20037;-78
2022/11/29 11:28:45;;;;;;;24.48;14.30;;;3.20;54.10;;;;;;5022970;28;20037;-78
2022/11/29 11:31:12;;;;;;;26.63;15.45;;;3.10;54.00;;;;;;5050631;28;20037;-79
2022/11/29 11:33:44;;;;;;;23.20;14.40;;;3.10;53.60;;;;;;5000269;28;20053;-79
2022/11/29 11:36:13;;;;;;;23.08;14.05;;;3.10;53.60;;;;;;5015801;28;20052;-78
2022/11/29 11:38:54;;;;;;;23.30;14.23;;;3.00;53.70;;;;;;5016438;28;20037;-81
2022/11/29 11:44:42;;;;;;;22.50;13.82;;;2.90;54.40;;;;;;5030488;28;20094;-79
2022/11/29 11:47:20;;;;;;;23.85;15.27;;;2.90;54.20;;;;;;5003969;28;20045;-77
2022/11/29 11:49:53;;;;;;;25.02;13.98;;;2.90;54.50;;;;;;5045133;28;20040;-77
2022/11/29 11:52:22;;;;;;;19.25;12.73;;;2.80;54.90;;;;;;5049878;28;20059;-77
2022/11/29 11:54:53;;;;;;;21.30;14.02;;;2.80;55.20;;;;;;5035834;28;20689;-78
2022/11/29 11:57:21;;;;;;;21.20;13.50;;;2.80;55.30;;;;;;5035900;28;20067;-78
2022/11/29 11:59:53;;;;;;;20.88;13.23;;;2.80;55.40;;;;;;5042869;28;20128;-79
2022/11/29 12:02:44;;;;;;;20.08;12.98;;;2.80;55.30;;;;;;5019358;28;20041;-78
2022/11/29 12:05:18;;;;;;;20.83;13.18;;;2.80;55.30;;;;;;5037758;28;20356;-79
2022/11/29 12:07:57;;;;;;;20.88;12.30;;;2.80;55.20;;;;;;5050081;28;20110;-78
2022/11/29 12:10:28;;;;;;;23.23;13.63;;;2.80;55.70;;;;;;5036357;28;20129;-78
2022/11/29 12:12:56;;;;;;;22.95;12.63;;;2.80;55.10;;;;;;5053211;28;20036;-78
2022/11/29 12:15:33;;;;;;;21.15;13.38;;;2.90;54.80;;;;;;5026469;28;20532;-78
2022/11/29 12:18:36;;;;;;;21.85;13.07;;;2.80;54.40;;;;;;5017455;28;20044;-78
2022/11/29 12:21:15;;;;;;;22.70;13.32;;;2.80;54.20;;;;;;5036781;28;20132;-77
2022/11/29 12:23:52;;;;;;;20.63;12.23;;;2.90;54.10;;;;;;5055326;28;20045;-76
2022/11/29 12:26:25;;;;;;;19.23;12.35;;;2.80;54.50;;;;;;5041658;28;20033;-79
2022/11/29 12:28:52;;;;;;;21.40;12.35;;;2.80;54.70;;;;;;5041436;28;20076;-79
2022/11/29 12:31:30;;;;;;;19.00;11.80;;;2.80;54.80;;;;;;5016374;28;20395;-80
2022/11/29 12:34:27;;;;;;;19.85;11.60;;;2.80;54.70;;;;;;5022493;28;20036;-79
2022/11/29 12:36:58;;;;;;;18.70;10.80;;;2.80;54.90;;;;;;5044526;28;20454;-79
2022/11/29 12:39:51;;;;;;;19.15;10.95;;;2.80;55.10;;;;;;5040924;28;20056;-79
2022/11/29 12:42:29;;;;;;;20.92;11.05;;;2.80;55.10;;;;;;4944555;28;20131;-80
2022/11/29 12:45:01;;;;;;;17.30;11.48;;;2.80;55.20;;;;;;4921196;29;20567;-79
2022/11/29 12:48:02;;;;;;;20.08;11.70;;;2.80;55.10;;;;;;4931327;29;20040;-80
2022/11/29 12:50:46;;;;;;;20.08;11.48;;;2.70;55.00;;;;;;4909673;29;20045;-79
2022/11/29 12:53:15;;;;;;;19.45;11.35;;;2.70;54.70;;;;;;4931107;29;20048;-80
2022/11/29 12:55:53;;;;;;;20.10;12.43;;;2.70;55.00;;;;;;4910076;29;20045;-78
2022/11/29 12:58:42;;;;;;;22.17;13.65;;;2.70;55.20;;;;;;4926186;29;20048;-76
2022/11/29 13:01:11;;;;;;;23.45;12.45;;;2.70;54.70;;;;;;4910016;29;20458;-77
2022/11/29 13:03:45;;;;;;;22.65;12.55;;;2.60;54.60;;;;;;4914742;29;20036;-77
2022/11/29 13:06:19;;;;;;;21.45;12.43;;;2.60;54.60;;;;;;4909544;29;20071;-76
2022/11/29 13:08:54;;;;;;;17.05;10.85;;;2.50;54.30;;;;;;4894966;29;20111;-78
2022/11/29 13:11:36;;;;;;;18.48;11.63;;;2.50;54.30;;;;;;4915545;29;20643;-78
2022/11/29 13:14:08;;;;;;;20.75;11.57;;;2.50;54.30;;;;;;4908099;29;20056;-75
2022/11/29 13:16:58;;;;;;;20.42;12.10;;;2.50;54.30;;;;;;4915688;29;20118;-77
2022/11/29 13:19:44;;;;;;;15.48;10.20;;;2.50;59.20;;;;;;4937637;28;20035;-77
2022/11/29 13:22:38;;;;;;;18.42;9.82;;;2.80;63.30;;;;;;4963020;28;20039;-77
2022/11/29 13:25:19;;;;;;;14.02;9.45;;;3.00;64.50;;;;;;4955853;28;20062;-76
2022/11/29 13:27:57;;;;;;;14.77;9.20;;;3.20;63.30;;;;;;4996312;28;20088;-78
2022/11/29 13:30:24;;;;;;;14.23;9.25;;;3.50;62.60;;;;;;5014294;28;20037;-77
2022/11/29 13:33:12;;;;;;;14.30;9.57;;;3.70;62.00;;;;;;4999065;28;20033;-77
2022/11/29 13:35:43;;;;;;;17.48;9.02;;;3.80;61.10;;;;;;5013629;28;20046;-78
2022/11/29 13:38:20;;;;;;;15.55;9.60;;;4.00;60.40;;;;;;5017824;28;20034;-79
2022/11/29 13:40:57;;;;;;;15.30;9.75;;;4.10;59.90;;;;;;5052583;28;20032;-77
2022/11/29 13:43:38;;;;;;;14.65;9.70;;;4.30;59.60;;;;;;5035795;28;20021;-77